sensor_id;sensor_type;location;lat;lon;timestamp;pressure;altitude;pressure_sealevel;temperature;humidity
9935;BME280;5006;41.828;23.478;2023-03-21T00:00:37;90199.56;;;23.04;nan
9935;BME280;5006;41.828;23.478;2023-03-21T00:01:42;90203.88;;;24.47;nan
9935;BME280;5006;41.828;23.478;2023-03-21T00:02:49;90206.00;;;23.86;nan
9935;BME280;5006;41.828;23.478;2023-03-21T00:03:54;90205.97;;;24.09;nan
9935;BME280;5006;41.828;23.478;2023-03-21T00:05:00;90203.66;;;23.93;nan
9935;BME280;5006;41.828;23.478;2023-03-21T00:06:05;90202.34;;;23.89;nan
9935;BME280;5006;41.828;23.478;2023-03-21T00:07:11;90198.88;;;23.18;nan
9935;BME280;5006;41.828;23.478;2023-03-21T00:08:16;90198.91;;;22.85;nan
9935;BME280;5006;41.828;23.478;2023-03-21T00:09:22;90196.56;;;22.19;nan
9935;BME280;5006;41.828;23.478;2023-03-21T00:10:28;90188.06;;;22.08;nan
9935;BME280;5006;41.828;23.478;2023-03-21T00:11:33;90195.94;;;22.24;nan
9935;BME280;5006;41.828;23.478;2023-03-21T00:12:39;90195.84;;;23.63;nan
9935;BME280;5006;41.828;23.478;2023-03-21T00:13:46;90195.66;;;24.33;nan
9935;BME280;5006;41.828;23.478;2023-03-21T00:14:50;90192.75;;;23.23;nan
9935;BME280;5006;41.828;23.478;2023-03-21T00:15:57;90193.72;;;20.97;nan
9935;BME280;5006;41.828;23.478;2023-03-21T00:17:02;90190.47;;;22.24;nan
9935;BME280;5006;41.828;23.478;2023-03-21T00:18:09;90191.88;;;22.10;nan
9935;BME280;5006;41.828;23.478;2023-03-21T00:19:15;90187.41;;;23.05;nan
9935;BME280;5006;41.828;23.478;2023-03-21T00:20:21;90192.44;;;23.30;nan
9935;BME280;5006;41.828;23.478;2023-03-21T00:21:26;90185.34;;;22.67;nan
9935;BME280;5006;41.828;23.478;2023-03-21T00:22:35;90197.34;;;22.93;nan
9935;BME280;5006;41.828;23.478;2023-03-21T00:23:41;90196.13;;;23.65;nan
9935;BME280;5006;41.828;23.478;2023-03-21T00:24:47;90200.91;;;23.08;nan
9935;BME280;5006;41.828;23.478;2023-03-21T00:25:51;90188.91;;;23.06;nan
9935;BME280;5006;41.828;23.478;2023-03-21T00:26:57;90195.38;;;22.61;nan
9935;BME280;5006;41.828;23.478;2023-03-21T00:28:02;90189.78;;;23.59;nan
9935;BME280;5006;41.828;23.478;2023-03-21T00:29:08;90183.63;;;22.70;nan
9935;BME280;5006;41.828;23.478;2023-03-21T00:30:14;90184.28;;;23.21;nan
9935;BME280;5006;41.828;23.478;2023-03-21T00:31:19;90178.72;;;21.55;nan
9935;BME280;5006;41.828;23.478;2023-03-21T00:32:27;90181.59;;;21.52;nan
9935;BME280;5006;41.828;23.478;2023-03-21T00:33:35;90181.31;;;21.77;nan
9935;BME280;5006;41.828;23.478;2023-03-21T00:34:42;90178.75;;;21.73;nan
9935;BME280;5006;41.828;23.478;2023-03-21T00:35:49;90188.03;;;20.25;nan
9935;BME280;5006;41.828;23.478;2023-03-21T00:36:55;90184.44;;;19.76;nan
9935;BME280;5006;41.828;23.478;2023-03-21T00:38:01;90189.22;;;20.24;nan
9935;BME280;5006;41.828;23.478;2023-03-21T00:39:06;90184.78;;;20.96;nan
9935;BME280;5006;41.828;23.478;2023-03-21T00:40:12;90184.19;;;21.01;nan
9935;BME280;5006;41.828;23.478;2023-03-21T00:41:18;90179.03;;;21.03;nan
9935;BME280;5006;41.828;23.478;2023-03-21T00:42:24;90181.19;;;21.35;nan
9935;BME280;5006;41.828;23.478;2023-03-21T00:43:29;90182.53;;;21.31;nan
9935;BME280;5006;41.828;23.478;2023-03-21T00:44:35;90179.34;;;21.50;nan
9935;BME280;5006;41.828;23.478;2023-03-21T00:45:40;90174.97;;;21.71;nan
9935;BME280;5006;41.828;23.478;2023-03-21T00:46:46;90167.84;;;21.10;nan
9935;BME280;5006;41.828;23.478;2023-03-21T00:47:50;90176.63;;;21.32;nan
9935;BME280;5006;41.828;23.478;2023-03-21T00:48:58;90170.31;;;20.69;nan
9935;BME280;5006;41.828;23.478;2023-03-21T00:50:03;90170.50;;;20.83;nan
9935;BME280;5006;41.828;23.478;2023-03-21T00:51:11;90160.53;;;21.43;nan
9935;BME280;5006;41.828;23.478;2023-03-21T00:52:18;90167.53;;;21.62;nan
9935;BME280;5006;41.828;23.478;2023-03-21T00:53:24;90168.66;;;22.15;nan
9935;BME280;5006;41.828;23.478;2023-03-21T00:54:29;90162.03;;;20.90;nan
9935;BME280;5006;41.828;23.478;2023-03-21T00:55:34;90161.69;;;20.70;nan
9935;BME280;5006;41.828;23.478;2023-03-21T00:56:39;90158.81;;;20.25;nan
9935;BME280;5006;41.828;23.478;2023-03-21T00:57:44;90153.00;;;20.45;nan
9935;BME280;5006;41.828;23.478;2023-03-21T00:58:49;90154.28;;;20.22;nan
9935;BME280;5006;41.828;23.478;2023-03-21T00:59:55;90149.19;;;21.09;nan
9935;BME280;5006;41.828;23.478;2023-03-21T01:01:01;90147.31;;;20.79;nan
9935;BME280;5006;41.828;23.478;2023-03-21T01:02:07;90145.50;;;20.76;nan
9935;BME280;5006;41.828;23.478;2023-03-21T01:03:13;90146.31;;;21.12;nan
9935;BME280;5006;41.828;23.478;2023-03-21T01:04:21;90148.50;;;20.11;nan
9935;BME280;5006;41.828;23.478;2023-03-21T01:05:31;90148.50;;;20.11;nan
9935;BME280;5006;41.828;23.478;2023-03-21T01:06:54;90137.88;;;20.53;nan
9935;BME280;5006;41.828;23.478;2023-03-21T01:08:00;90146.28;;;20.94;nan
9935;BME280;5006;41.828;23.478;2023-03-21T01:09:05;90149.75;;;20.28;nan
9935;BME280;5006;41.828;23.478;2023-03-21T01:10:14;90141.09;;;20.21;nan
9935;BME280;5006;41.828;23.478;2023-03-21T01:11:21;90134.56;;;20.58;nan
9935;BME280;5006;41.828;23.478;2023-03-21T01:12:27;90146.41;;;20.82;nan
9935;BME280;5006;41.828;23.478;2023-03-21T01:13:34;90140.53;;;20.83;nan
9935;BME280;5006;41.828;23.478;2023-03-21T01:14:40;90132.31;;;20.74;nan
9935;BME280;5006;41.828;23.478;2023-03-21T01:15:46;90138.09;;;21.57;nan
9935;BME280;5006;41.828;23.478;2023-03-21T01:16:52;90137.34;;;20.85;nan
9935;BME280;5006;41.828;23.478;2023-03-21T01:17:57;90137.22;;;20.97;nan
9935;BME280;5006;41.828;23.478;2023-03-21T01:19:04;90135.84;;;21.65;nan
9935;BME280;5006;41.828;23.478;2023-03-21T01:20:12;90134.47;;;21.51;nan
9935;BME280;5006;41.828;23.478;2023-03-21T01:21:17;90136.31;;;21.63;nan
9935;BME280;5006;41.828;23.478;2023-03-21T01:22:22;90131.16;;;21.02;nan
9935;BME280;5006;41.828;23.478;2023-03-21T01:23:28;90134.34;;;21.19;nan
9935;BME280;5006;41.828;23.478;2023-03-21T01:24:33;90133.28;;;21.16;nan
9935;BME280;5006;41.828;23.478;2023-03-21T01:25:39;90132.66;;;20.85;nan
9935;BME280;5006;41.828;23.478;2023-03-21T01:26:44;90139.59;;;21.85;nan
9935;BME280;5006;41.828;23.478;2023-03-21T01:27:50;90138.41;;;20.87;nan
9935;BME280;5006;41.828;23.478;2023-03-21T01:28:54;90139.31;;;21.56;nan
9935;BME280;5006;41.828;23.478;2023-03-21T01:30:01;90147.81;;;20.29;nan
9935;BME280;5006;41.828;23.478;2023-03-21T01:31:07;90152.63;;;19.64;nan
9935;BME280;5006;41.828;23.478;2023-03-21T01:32:13;90145.31;;;20.61;nan
9935;BME280;5006;41.828;23.478;2023-03-21T01:33:18;90143.38;;;20.22;nan
9935;BME280;5006;41.828;23.478;2023-03-21T01:34:25;90147.56;;;20.05;nan
9935;BME280;5006;41.828;23.478;2023-03-21T01:35:35;90150.47;;;19.38;nan
9935;BME280;5006;41.828;23.478;2023-03-21T01:36:40;90140.63;;;20.71;nan
9935;BME280;5006;41.828;23.478;2023-03-21T01:37:50;90141.00;;;20.33;nan
9935;BME280;5006;41.828;23.478;2023-03-21T01:38:55;90128.50;;;20.54;nan
9935;BME280;5006;41.828;23.478;2023-03-21T01:40:01;90137.41;;;20.45;nan
9935;BME280;5006;41.828;23.478;2023-03-21T01:41:15;90138.38;;;20.12;nan
9935;BME280;5006;41.828;23.478;2023-03-21T01:42:22;90139.19;;;20.00;nan
9935;BME280;5006;41.828;23.478;2023-03-21T01:43:28;90138.78;;;20.50;nan
9935;BME280;5006;41.828;23.478;2023-03-21T01:44:51;90143.78;;;19.30;nan
9935;BME280;5006;41.828;23.478;2023-03-21T01:46:16;90126.50;;;20.45;nan
9935;BME280;5006;41.828;23.478;2023-03-21T01:47:36;90126.59;;;20.90;nan
9935;BME280;5006;41.828;23.478;2023-03-21T01:49:04;90128.59;;;20.90;nan
9935;BME280;5006;41.828;23.478;2023-03-21T01:50:09;90124.75;;;20.78;nan
9935;BME280;5006;41.828;23.478;2023-03-21T01:51:26;90121.91;;;21.09;nan
9935;BME280;5006;41.828;23.478;2023-03-21T01:52:37;90124.53;;;21.99;nan
9935;BME280;5006;41.828;23.478;2023-03-21T01:53:51;90125.38;;;21.54;nan
9935;BME280;5006;41.828;23.478;2023-03-21T01:54:56;90117.81;;;21.40;nan
9935;BME280;5006;41.828;23.478;2023-03-21T01:56:07;90119.19;;;21.18;nan
9935;BME280;5006;41.828;23.478;2023-03-21T01:57:34;90113.63;;;22.40;nan
9935;BME280;5006;41.828;23.478;2023-03-21T01:58:42;90111.28;;;22.15;nan
9935;BME280;5006;41.828;23.478;2023-03-21T02:00:19;90110.66;;;22.52;nan
9935;BME280;5006;41.828;23.478;2023-03-21T02:01:38;90108.25;;;22.54;nan
9935;BME280;5006;41.828;23.478;2023-03-21T02:02:47;90113.28;;;22.06;nan
9935;BME280;5006;41.828;23.478;2023-03-21T02:04:21;90108.25;;;22.13;nan
9935;BME280;5006;41.828;23.478;2023-03-21T02:05:58;90113.59;;;22.96;nan
9935;BME280;5006;41.828;23.478;2023-03-21T02:07:10;90114.00;;;23.27;nan
9935;BME280;5006;41.828;23.478;2023-03-21T02:08:27;90110.94;;;22.87;nan
9935;BME280;5006;41.828;23.478;2023-03-21T02:09:34;90108.00;;;22.67;nan
9935;BME280;5006;41.828;23.478;2023-03-21T02:10:49;90109.88;;;21.87;nan
9935;BME280;5006;41.828;23.478;2023-03-21T02:12:06;90110.22;;;23.01;nan
9935;BME280;5006;41.828;23.478;2023-03-21T02:13:14;90104.09;;;23.29;nan
9935;BME280;5006;41.828;23.478;2023-03-21T02:14:19;90117.16;;;23.49;nan
9935;BME280;5006;41.828;23.478;2023-03-21T02:15:34;90110.88;;;23.19;nan
9935;BME280;5006;41.828;23.478;2023-03-21T02:17:02;90104.16;;;21.31;nan
9935;BME280;5006;41.828;23.478;2023-03-21T02:18:16;90115.69;;;20.90;nan
9935;BME280;5006;41.828;23.478;2023-03-21T02:19:42;90111.50;;;22.67;nan
9935;BME280;5006;41.828;23.478;2023-03-21T02:21:12;90109.97;;;22.43;nan
9935;BME280;5006;41.828;23.478;2023-03-21T02:24:21;90098.75;;;21.13;nan
9935;BME280;5006;41.828;23.478;2023-03-21T02:25:55;90105.13;;;20.35;nan
9935;BME280;5006;41.828;23.478;2023-03-21T02:27:10;90105.41;;;20.85;nan
9935;BME280;5006;41.828;23.478;2023-03-21T02:28:23;90113.75;;;21.18;nan
9935;BME280;5006;41.828;23.478;2023-03-21T02:31:23;90112.88;;;19.36;nan
9935;BME280;5006;41.828;23.478;2023-03-21T02:32:38;90114.56;;;19.43;nan
9935;BME280;5006;41.828;23.478;2023-03-21T02:35:57;90114.31;;;18.73;nan
9935;BME280;5006;41.828;23.478;2023-03-21T02:37:21;90116.16;;;18.76;nan
9935;BME280;5006;41.828;23.478;2023-03-21T02:38:30;90110.88;;;18.60;nan
9935;BME280;5006;41.828;23.478;2023-03-21T02:39:50;90116.19;;;18.63;nan
9935;BME280;5006;41.828;23.478;2023-03-21T02:41:03;90116.53;;;18.87;nan
9935;BME280;5006;41.828;23.478;2023-03-21T02:42:13;90108.34;;;18.19;nan
9935;BME280;5006;41.828;23.478;2023-03-21T02:43:27;90109.41;;;19.02;nan
9935;BME280;5006;41.828;23.478;2023-03-21T02:44:42;90110.72;;;19.92;nan
9935;BME280;5006;41.828;23.478;2023-03-21T02:45:51;90111.00;;;19.55;nan
9935;BME280;5006;41.828;23.478;2023-03-21T02:47:00;90108.78;;;20.41;nan
9935;BME280;5006;41.828;23.478;2023-03-21T02:48:11;90107.13;;;20.34;nan
9935;BME280;5006;41.828;23.478;2023-03-21T02:49:21;90106.09;;;20.59;nan
9935;BME280;5006;41.828;23.478;2023-03-21T02:50:31;90106.88;;;20.59;nan
9935;BME280;5006;41.828;23.478;2023-03-21T02:51:42;90101.38;;;20.32;nan
9935;BME280;5006;41.828;23.478;2023-03-21T02:52:53;90104.41;;;20.52;nan
9935;BME280;5006;41.828;23.478;2023-03-21T02:54:01;90100.63;;;21.76;nan
9935;BME280;5006;41.828;23.478;2023-03-21T02:55:14;90100.72;;;21.99;nan
9935;BME280;5006;41.828;23.478;2023-03-21T02:56:29;90097.75;;;21.70;nan
9935;BME280;5006;41.828;23.478;2023-03-21T02:57:35;90105.78;;;20.57;nan
9935;BME280;5006;41.828;23.478;2023-03-21T02:58:42;90098.59;;;21.17;nan
9935;BME280;5006;41.828;23.478;2023-03-21T02:59:49;90097.69;;;21.20;nan
9935;BME280;5006;41.828;23.478;2023-03-21T03:00:56;90095.34;;;21.54;nan
9935;BME280;5006;41.828;23.478;2023-03-21T03:02:14;90102.06;;;21.17;nan
9935;BME280;5006;41.828;23.478;2023-03-21T03:03:20;90100.16;;;20.42;nan
9935;BME280;5006;41.828;23.478;2023-03-21T03:04:27;90099.75;;;20.04;nan
9935;BME280;5006;41.828;23.478;2023-03-21T03:05:36;90098.56;;;19.45;nan
9935;BME280;5006;41.828;23.478;2023-03-21T03:06:54;90100.47;;;20.35;nan
9935;BME280;5006;41.828;23.478;2023-03-21T03:08:23;90100.56;;;20.14;nan
9935;BME280;5006;41.828;23.478;2023-03-21T03:09:38;90095.22;;;21.67;nan
9935;BME280;5006;41.828;23.478;2023-03-21T03:10:59;90093.00;;;21.20;nan
9935;BME280;5006;41.828;23.478;2023-03-21T03:12:15;90092.38;;;20.98;nan
9935;BME280;5006;41.828;23.478;2023-03-21T03:13:34;90094.88;;;19.99;nan
9935;BME280;5006;41.828;23.478;2023-03-21T03:14:49;90096.84;;;20.47;nan
9935;BME280;5006;41.828;23.478;2023-03-21T03:16:06;90098.47;;;20.36;nan
9935;BME280;5006;41.828;23.478;2023-03-21T03:17:22;90089.78;;;20.86;nan
9935;BME280;5006;41.828;23.478;2023-03-21T03:18:38;90096.13;;;20.83;nan
9935;BME280;5006;41.828;23.478;2023-03-21T03:19:55;90099.00;;;20.79;nan
9935;BME280;5006;41.828;23.478;2023-03-21T03:21:09;90091.41;;;21.55;nan
9935;BME280;5006;41.828;23.478;2023-03-21T03:22:23;90092.50;;;21.22;nan
9935;BME280;5006;41.828;23.478;2023-03-21T03:23:39;90090.00;;;22.51;nan
9935;BME280;5006;41.828;23.478;2023-03-21T03:24:54;90093.50;;;22.19;nan
9935;BME280;5006;41.828;23.478;2023-03-21T03:26:03;90093.13;;;18.34;nan
9935;BME280;5006;41.828;23.478;2023-03-21T03:27:16;90093.22;;;18.77;nan
9935;BME280;5006;41.828;23.478;2023-03-21T03:28:28;90088.41;;;19.45;nan
9935;BME280;5006;41.828;23.478;2023-03-21T03:29:38;90091.28;;;19.20;nan
9935;BME280;5006;41.828;23.478;2023-03-21T03:30:45;90087.41;;;18.66;nan
9935;BME280;5006;41.828;23.478;2023-03-21T03:32:01;90086.22;;;18.08;nan
9935;BME280;5006;41.828;23.478;2023-03-21T03:33:12;90092.47;;;18.76;nan
9935;BME280;5006;41.828;23.478;2023-03-21T03:34:22;90083.81;;;19.12;nan
9935;BME280;5006;41.828;23.478;2023-03-21T03:35:31;90086.31;;;19.19;nan
9935;BME280;5006;41.828;23.478;2023-03-21T03:36:39;90082.03;;;18.75;nan
9935;BME280;5006;41.828;23.478;2023-03-21T03:37:54;90077.44;;;18.84;nan
9935;BME280;5006;41.828;23.478;2023-03-21T03:39:04;90090.75;;;18.70;nan
9935;BME280;5006;41.828;23.478;2023-03-21T03:40:14;90081.66;;;19.07;nan
9935;BME280;5006;41.828;23.478;2023-03-21T03:41:29;90081.72;;;18.73;nan
9935;BME280;5006;41.828;23.478;2023-03-21T03:42:40;90083.25;;;19.17;nan
9935;BME280;5006;41.828;23.478;2023-03-21T03:43:58;90081.97;;;19.09;nan
9935;BME280;5006;41.828;23.478;2023-03-21T03:45:10;90076.94;;;20.11;nan
9935;BME280;5006;41.828;23.478;2023-03-21T03:46:21;90081.78;;;19.46;nan
9935;BME280;5006;41.828;23.478;2023-03-21T03:47:33;90079.78;;;19.68;nan
9935;BME280;5006;41.828;23.478;2023-03-21T03:48:46;90084.34;;;21.31;nan
9935;BME280;5006;41.828;23.478;2023-03-21T03:49:58;90086.00;;;20.83;nan
9935;BME280;5006;41.828;23.478;2023-03-21T03:51:07;90079.91;;;19.65;nan
9935;BME280;5006;41.828;23.478;2023-03-21T03:52:36;90080.84;;;19.71;nan
9935;BME280;5006;41.828;23.478;2023-03-21T03:53:51;90087.84;;;19.50;nan
9935;BME280;5006;41.828;23.478;2023-03-21T03:55:04;90088.56;;;20.02;nan
9935;BME280;5006;41.828;23.478;2023-03-21T03:56:14;90085.09;;;20.11;nan
9935;BME280;5006;41.828;23.478;2023-03-21T03:57:19;90083.00;;;20.99;nan
9935;BME280;5006;41.828;23.478;2023-03-21T03:58:25;90081.44;;;20.80;nan
9935;BME280;5006;41.828;23.478;2023-03-21T03:59:33;90081.78;;;20.91;nan
9935;BME280;5006;41.828;23.478;2023-03-21T04:01:08;90078.06;;;19.31;nan
9935;BME280;5006;41.828;23.478;2023-03-21T04:02:15;90078.69;;;19.14;nan
9935;BME280;5006;41.828;23.478;2023-03-21T04:03:20;90080.66;;;19.95;nan
9935;BME280;5006;41.828;23.478;2023-03-21T04:04:26;90075.13;;;19.47;nan
9935;BME280;5006;41.828;23.478;2023-03-21T04:05:33;90067.84;;;20.05;nan
9935;BME280;5006;41.828;23.478;2023-03-21T04:06:40;90071.41;;;20.50;nan
9935;BME280;5006;41.828;23.478;2023-03-21T04:07:44;90070.34;;;20.30;nan
9935;BME280;5006;41.828;23.478;2023-03-21T04:08:52;90069.56;;;20.29;nan
9935;BME280;5006;41.828;23.478;2023-03-21T04:09:57;90078.84;;;20.59;nan
9935;BME280;5006;41.828;23.478;2023-03-21T04:11:05;90073.25;;;19.14;nan
9935;BME280;5006;41.828;23.478;2023-03-21T04:12:14;90078.16;;;20.85;nan
9935;BME280;5006;41.828;23.478;2023-03-21T04:13:32;90080.78;;;19.31;nan
9935;BME280;5006;41.828;23.478;2023-03-21T04:14:43;90086.22;;;18.88;nan
9935;BME280;5006;41.828;23.478;2023-03-21T04:15:49;90085.94;;;18.74;nan
9935;BME280;5006;41.828;23.478;2023-03-21T04:16:54;90085.88;;;18.65;nan
9935;BME280;5006;41.828;23.478;2023-03-21T04:18:00;90083.59;;;19.19;nan
9935;BME280;5006;41.828;23.478;2023-03-21T04:19:05;90084.47;;;19.68;nan
9935;BME280;5006;41.828;23.478;2023-03-21T04:20:11;90090.59;;;19.89;nan
9935;BME280;5006;41.828;23.478;2023-03-21T04:21:15;90086.53;;;20.42;nan
9935;BME280;5006;41.828;23.478;2023-03-21T04:22:22;90080.28;;;20.15;nan
9935;BME280;5006;41.828;23.478;2023-03-21T04:23:27;90083.25;;;19.99;nan
9935;BME280;5006;41.828;23.478;2023-03-21T04:24:33;90075.06;;;20.47;nan
9935;BME280;5006;41.828;23.478;2023-03-21T04:25:40;90074.50;;;19.43;nan
9935;BME280;5006;41.828;23.478;2023-03-21T04:26:48;90077.28;;;19.91;nan
9935;BME280;5006;41.828;23.478;2023-03-21T04:28:15;90077.44;;;22.12;nan
9935;BME280;5006;41.828;23.478;2023-03-21T04:29:55;90070.59;;;22.17;nan
9935;BME280;5006;41.828;23.478;2023-03-21T04:31:15;90067.28;;;22.69;nan
9935;BME280;5006;41.828;23.478;2023-03-21T04:32:25;90066.59;;;22.59;nan
9935;BME280;5006;41.828;23.478;2023-03-21T04:33:45;90059.13;;;22.04;nan
9935;BME280;5006;41.828;23.478;2023-03-21T04:34:51;90063.75;;;20.85;nan
9935;BME280;5006;41.828;23.478;2023-03-21T04:35:57;90058.44;;;20.99;nan
9935;BME280;5006;41.828;23.478;2023-03-21T04:37:06;90056.69;;;22.06;nan
9935;BME280;5006;41.828;23.478;2023-03-21T04:38:17;90057.25;;;21.09;nan
9935;BME280;5006;41.828;23.478;2023-03-21T04:39:22;90058.81;;;21.52;nan
9935;BME280;5006;41.828;23.478;2023-03-21T04:40:28;90056.91;;;21.34;nan
9935;BME280;5006;41.828;23.478;2023-03-21T04:41:33;90056.13;;;21.25;nan
9935;BME280;5006;41.828;23.478;2023-03-21T04:42:43;90064.88;;;22.06;nan
9935;BME280;5006;41.828;23.478;2023-03-21T04:43:48;90065.47;;;22.10;nan
9935;BME280;5006;41.828;23.478;2023-03-21T04:44:56;90070.69;;;22.78;nan
9935;BME280;5006;41.828;23.478;2023-03-21T04:46:01;90075.91;;;22.53;nan
9935;BME280;5006;41.828;23.478;2023-03-21T04:47:07;90073.84;;;22.39;nan
9935;BME280;5006;41.828;23.478;2023-03-21T04:48:12;90071.38;;;22.50;nan
9935;BME280;5006;41.828;23.478;2023-03-21T04:49:18;90064.38;;;20.89;nan
9935;BME280;5006;41.828;23.478;2023-03-21T04:50:22;90070.66;;;21.67;nan
9935;BME280;5006;41.828;23.478;2023-03-21T04:51:29;90065.50;;;22.66;nan
9935;BME280;5006;41.828;23.478;2023-03-21T04:52:34;90076.31;;;21.96;nan
9935;BME280;5006;41.828;23.478;2023-03-21T04:53:40;90068.69;;;22.32;nan
9935;BME280;5006;41.828;23.478;2023-03-21T04:54:50;90072.44;;;22.11;nan
9935;BME280;5006;41.828;23.478;2023-03-21T04:55:56;90080.81;;;22.08;nan
9935;BME280;5006;41.828;23.478;2023-03-21T04:57:02;90082.59;;;21.78;nan
9935;BME280;5006;41.828;23.478;2023-03-21T04:58:09;90073.78;;;22.15;nan
9935;BME280;5006;41.828;23.478;2023-03-21T04:59:15;90078.44;;;21.23;nan
9935;BME280;5006;41.828;23.478;2023-03-21T05:00:21;90074.81;;;20.99;nan
9935;BME280;5006;41.828;23.478;2023-03-21T05:01:27;90079.47;;;21.35;nan
9935;BME280;5006;41.828;23.478;2023-03-21T05:02:34;90076.66;;;21.80;nan
9935;BME280;5006;41.828;23.478;2023-03-21T05:03:39;90075.94;;;21.61;nan
9935;BME280;5006;41.828;23.478;2023-03-21T05:04:44;90080.38;;;22.00;nan
9935;BME280;5006;41.828;23.478;2023-03-21T05:05:49;90067.47;;;21.41;nan
9935;BME280;5006;41.828;23.478;2023-03-21T05:06:56;90076.00;;;21.25;nan
9935;BME280;5006;41.828;23.478;2023-03-21T05:08:01;90079.34;;;21.89;nan
9935;BME280;5006;41.828;23.478;2023-03-21T05:09:07;90080.28;;;22.18;nan
9935;BME280;5006;41.828;23.478;2023-03-21T05:10:14;90072.19;;;22.32;nan
9935;BME280;5006;41.828;23.478;2023-03-21T05:11:20;90076.00;;;21.16;nan
9935;BME280;5006;41.828;23.478;2023-03-21T05:12:25;90078.00;;;21.07;nan
9935;BME280;5006;41.828;23.478;2023-03-21T05:13:31;90075.38;;;20.67;nan
9935;BME280;5006;41.828;23.478;2023-03-21T05:14:36;90071.59;;;21.28;nan
9935;BME280;5006;41.828;23.478;2023-03-21T05:15:43;90074.78;;;20.63;nan
9935;BME280;5006;41.828;23.478;2023-03-21T05:16:47;90077.16;;;21.51;nan
9935;BME280;5006;41.828;23.478;2023-03-21T05:17:57;90066.72;;;22.32;nan
9935;BME280;5006;41.828;23.478;2023-03-21T05:19:02;90070.88;;;22.19;nan
9935;BME280;5006;41.828;23.478;2023-03-21T05:20:12;90068.25;;;22.33;nan
9935;BME280;5006;41.828;23.478;2023-03-21T05:21:21;90066.53;;;22.68;nan
9935;BME280;5006;41.828;23.478;2023-03-21T05:22:27;90066.47;;;22.21;nan
9935;BME280;5006;41.828;23.478;2023-03-21T05:23:33;90069.03;;;22.57;nan
9935;BME280;5006;41.828;23.478;2023-03-21T05:24:42;90073.78;;;22.95;nan
9935;BME280;5006;41.828;23.478;2023-03-21T05:25:57;90071.41;;;22.00;nan
9935;BME280;5006;41.828;23.478;2023-03-21T05:27:28;90073.16;;;21.88;nan
9935;BME280;5006;41.828;23.478;2023-03-21T05:28:45;90062.28;;;22.11;nan
9935;BME280;5006;41.828;23.478;2023-03-21T05:29:51;90078.88;;;23.25;nan
9935;BME280;5006;41.828;23.478;2023-03-21T05:30:57;90067.28;;;23.30;nan
9935;BME280;5006;41.828;23.478;2023-03-21T05:32:04;90077.56;;;22.50;nan
9935;BME280;5006;41.828;23.478;2023-03-21T05:33:08;90069.91;;;22.31;nan
9935;BME280;5006;41.828;23.478;2023-03-21T05:34:14;90077.44;;;23.15;nan
9935;BME280;5006;41.828;23.478;2023-03-21T05:35:20;90076.00;;;23.05;nan
9935;BME280;5006;41.828;23.478;2023-03-21T05:36:26;90072.56;;;23.34;nan
9935;BME280;5006;41.828;23.478;2023-03-21T05:37:30;90079.63;;;22.88;nan
9935;BME280;5006;41.828;23.478;2023-03-21T05:38:37;90080.94;;;23.16;nan
9935;BME280;5006;41.828;23.478;2023-03-21T05:39:43;90076.38;;;23.65;nan
9935;BME280;5006;41.828;23.478;2023-03-21T05:40:54;90077.44;;;23.15;nan
9935;BME280;5006;41.828;23.478;2023-03-21T05:42:02;90069.66;;;22.99;nan
9935;BME280;5006;41.828;23.478;2023-03-21T05:43:08;90075.59;;;23.36;nan
9935;BME280;5006;41.828;23.478;2023-03-21T05:44:15;90072.81;;;23.88;nan
9935;BME280;5006;41.828;23.478;2023-03-21T05:45:21;90070.19;;;23.94;nan
9935;BME280;5006;41.828;23.478;2023-03-21T05:46:27;90071.16;;;24.40;nan
9935;BME280;5006;41.828;23.478;2023-03-21T05:47:33;90073.94;;;23.82;nan
9935;BME280;5006;41.828;23.478;2023-03-21T05:48:38;90073.84;;;23.09;nan
9935;BME280;5006;41.828;23.478;2023-03-21T05:49:51;90065.25;;;23.69;nan
9935;BME280;5006;41.828;23.478;2023-03-21T05:50:58;90071.50;;;23.69;nan
9935;BME280;5006;41.828;23.478;2023-03-21T05:52:03;90073.38;;;23.78;nan
9935;BME280;5006;41.828;23.478;2023-03-21T05:53:09;90067.91;;;23.92;nan
9935;BME280;5006;41.828;23.478;2023-03-21T05:54:14;90064.88;;;23.76;nan
9935;BME280;5006;41.828;23.478;2023-03-21T05:55:23;90059.47;;;23.81;nan
9935;BME280;5006;41.828;23.478;2023-03-21T05:56:28;90053.94;;;23.90;nan
9935;BME280;5006;41.828;23.478;2023-03-21T05:57:39;90056.66;;;23.90;nan
9935;BME280;5006;41.828;23.478;2023-03-21T05:58:54;90067.66;;;24.39;nan
9935;BME280;5006;41.828;23.478;2023-03-21T06:00:03;90058.81;;;24.01;nan
9935;BME280;5006;41.828;23.478;2023-03-21T06:01:20;90055.59;;;22.68;nan
9935;BME280;5006;41.828;23.478;2023-03-21T06:02:33;90061.09;;;22.04;nan
9935;BME280;5006;41.828;23.478;2023-03-21T06:03:45;90060.22;;;21.29;nan
9935;BME280;5006;41.828;23.478;2023-03-21T06:04:56;90060.66;;;21.96;nan
9935;BME280;5006;41.828;23.478;2023-03-21T06:06:00;90059.53;;;21.70;nan
9935;BME280;5006;41.828;23.478;2023-03-21T06:07:13;90054.63;;;21.83;nan
9935;BME280;5006;41.828;23.478;2023-03-21T06:08:19;90055.34;;;21.42;nan
9935;BME280;5006;41.828;23.478;2023-03-21T06:09:24;90054.06;;;22.44;nan
9935;BME280;5006;41.828;23.478;2023-03-21T06:10:34;90063.94;;;22.09;nan
9935;BME280;5006;41.828;23.478;2023-03-21T06:11:46;90061.53;;;21.70;nan
9935;BME280;5006;41.828;23.478;2023-03-21T06:13:15;90049.91;;;22.25;nan
9935;BME280;5006;41.828;23.478;2023-03-21T06:14:22;90065.69;;;22.21;nan
9935;BME280;5006;41.828;23.478;2023-03-21T06:15:52;90049.13;;;22.01;nan
9935;BME280;5006;41.828;23.478;2023-03-21T06:17:01;90055.13;;;22.14;nan
9935;BME280;5006;41.828;23.478;2023-03-21T06:18:08;90060.75;;;22.43;nan
9935;BME280;5006;41.828;23.478;2023-03-21T06:19:15;90067.56;;;23.18;nan
9935;BME280;5006;41.828;23.478;2023-03-21T06:20:38;90068.94;;;24.09;nan
9935;BME280;5006;41.828;23.478;2023-03-21T06:21:48;90066.28;;;23.71;nan
9935;BME280;5006;41.828;23.478;2023-03-21T06:22:54;90065.59;;;23.33;nan
9935;BME280;5006;41.828;23.478;2023-03-21T06:23:59;90064.84;;;23.47;nan
9935;BME280;5006;41.828;23.478;2023-03-21T06:25:06;90056.59;;;22.56;nan
9935;BME280;5006;41.828;23.478;2023-03-21T06:26:12;90061.81;;;22.69;nan
9935;BME280;5006;41.828;23.478;2023-03-21T06:27:18;90063.38;;;22.28;nan
9935;BME280;5006;41.828;23.478;2023-03-21T06:28:33;90061.09;;;22.36;nan
9935;BME280;5006;41.828;23.478;2023-03-21T06:29:39;90062.78;;;22.33;nan
9935;BME280;5006;41.828;23.478;2023-03-21T06:30:45;90057.03;;;22.31;nan